createdAt,value
2018-12-08T00:00:42.298Z,3.43
2018-12-08T00:03:09.748Z,3.33
2018-12-08T00:05:38.131Z,3.20
2018-12-08T00:08:05.592Z,3.57
2018-12-08T00:10:33.029Z,3.07
2018-12-08T00:13:00.508Z,4.33
2018-12-08T00:15:27.979Z,5.10
2018-12-08T00:17:55.607Z,2.00
2018-12-08T00:20:23.045Z,3.40
2018-12-08T00:22:51.131Z,4.10
2018-12-08T00:25:18.565Z,3.10
2018-12-08T00:27:47.115Z,4.00
2018-12-08T00:30:26.324Z,3.90
2018-12-08T00:32:53.769Z,3.30
2018-12-08T00:35:21.436Z,3.67
2018-12-08T00:37:48.891Z,3.90
2018-12-08T00:40:16.376Z,3.20
2018-12-08T00:42:44.013Z,3.03
2018-12-08T00:45:11.572Z,3.57
2018-12-08T00:47:39.327Z,2.80
2018-12-08T00:50:06.780Z,3.23
2018-12-08T00:52:34.251Z,2.77
2018-12-08T00:55:02.008Z,2.67
2018-12-08T00:57:29.447Z,3.07
2018-12-08T00:59:57.200Z,2.23
2018-12-08T01:02:24.672Z,2.33
2018-12-08T01:04:52.140Z,1.47
2018-12-08T01:07:19.924Z,2.90
2018-12-08T01:09:47.592Z,4.77
2018-12-08T01:12:15.147Z,2.87
2018-12-08T01:14:42.590Z,3.20
2018-12-08T01:17:10.040Z,2.17
2018-12-08T01:19:38.332Z,2.50
2018-12-08T01:22:06.497Z,2.60
2018-12-08T01:24:33.936Z,3.33
2018-12-08T01:27:01.708Z,2.67
2018-12-08T01:29:29.156Z,3.20
2018-12-08T01:31:56.612Z,2.20
2018-12-08T01:34:24.081Z,3.43
2018-12-08T01:36:51.541Z,2.20
2018-12-08T01:39:19.331Z,2.60
2018-12-08T01:41:47.017Z,4.77
2018-12-08T01:44:14.516Z,3.47
2018-12-08T01:46:41.982Z,3.03
2018-12-08T01:49:10.605Z,2.93
2018-12-08T01:51:38.107Z,3.00
2018-12-08T01:54:05.584Z,3.13
2018-12-08T01:56:33.031Z,3.30
2018-12-08T01:59:00.789Z,2.47
2018-12-08T02:01:28.419Z,2.30
2018-12-08T02:03:56.009Z,2.97
2018-12-08T02:06:23.487Z,3.13
2018-12-08T02:08:51.100Z,2.83
2018-12-08T02:11:24.940Z,2.20
2018-12-08T02:13:48.303Z,3.27
2018-12-08T02:16:15.760Z,2.10
2018-12-08T02:18:43.211Z,2.47
2018-12-08T02:21:11.584Z,2.60
2018-12-08T02:23:39.032Z,3.20
2018-12-08T02:26:06.504Z,2.50
2018-12-08T02:28:33.974Z,3.27
2018-12-08T02:31:01.766Z,2.20
2018-12-08T02:33:30.063Z,3.30
2018-12-08T02:35:57.555Z,2.27
2018-12-08T02:38:25.318Z,2.30
2018-12-08T02:40:52.821Z,3.17
2018-12-08T02:43:20.275Z,2.60
2018-12-08T02:45:47.853Z,4.00
2018-12-08T02:48:15.383Z,2.80
2018-12-08T02:50:42.922Z,2.90
2018-12-08T02:53:10.359Z,2.13
2018-12-08T02:55:37.815Z,2.90
2018-12-08T02:58:05.271Z,2.63
2018-12-08T03:00:32.736Z,2.10
2018-12-08T03:03:00.215Z,2.47
2018-12-08T03:05:27.664Z,3.50
2018-12-08T03:07:55.743Z,2.87
2018-12-08T03:10:23.475Z,2.50
2018-12-08T03:12:50.939Z,3.27
2018-12-08T03:15:18.642Z,2.63
2018-12-08T03:17:46.063Z,1.50
2018-12-08T03:20:13.524Z,3.30
2018-12-08T03:22:40.991Z,1.20
2018-12-08T03:25:08.540Z,2.67
2018-12-08T03:27:36.303Z,2.50
2018-12-08T03:30:04.280Z,1.63
2018-12-08T03:32:31.825Z,2.57
2018-12-08T03:34:59.363Z,3.10
2018-12-08T03:37:26.821Z,3.03
2018-12-08T03:39:54.511Z,3.10
2018-12-08T03:42:22.581Z,2.40
2018-12-08T03:44:50.219Z,3.03
2018-12-08T03:47:17.704Z,2.50
2018-12-08T03:49:45.235Z,3.33
2018-12-08T03:52:12.699Z,2.17
2018-12-08T03:54:40.306Z,2.17
2018-12-08T03:57:08.103Z,2.90
2018-12-08T03:59:35.672Z,2.13
2018-12-08T04:02:03.460Z,2.27
2018-12-08T04:04:31.071Z,1.53
2018-12-08T04:06:58.656Z,4.60
2018-12-08T04:09:26.079Z,1.97
2018-12-08T04:11:53.595Z,1.43
2018-12-08T04:14:21.068Z,3.17
2018-12-08T04:16:48.792Z,2.40
2018-12-08T04:19:16.245Z,3.17
2018-12-08T04:21:43.729Z,2.60
2018-12-08T04:24:11.187Z,3.00
2018-12-08T04:26:38.797Z,3.13
2018-12-08T04:29:06.326Z,3.47
2018-12-08T04:31:33.835Z,2.67
2018-12-08T04:34:01.302Z,3.50
2018-12-08T04:36:28.925Z,3.23
2018-12-08T04:38:56.545Z,2.20
2018-12-08T04:41:24.277Z,3.00
2018-12-08T04:43:51.743Z,3.00
2018-12-08T04:46:19.211Z,2.37
2018-12-08T04:48:46.668Z,2.87
2018-12-08T04:51:14.415Z,4.50
2018-12-08T04:53:41.862Z,2.33
2018-12-08T04:56:09.323Z,3.03
2018-12-08T04:58:36.786Z,3.23
2018-12-08T05:01:04.245Z,2.37
2018-12-08T05:03:31.861Z,3.10
2018-12-08T05:05:59.459Z,1.87
2018-12-08T05:08:26.911Z,2.90
2018-12-08T05:10:54.372Z,3.27
2018-12-08T05:13:21.824Z,3.37
2018-12-08T05:15:49.504Z,2.70
2018-12-08T05:18:16.965Z,3.23
2018-12-08T05:20:44.424Z,2.40
2018-12-08T05:23:11.979Z,3.47
2018-12-08T05:25:39.424Z,4.33
2018-12-08T05:28:07.175Z,4.20
2018-12-08T05:30:34.632Z,2.97
2018-12-08T05:33:02.075Z,3.50
2018-12-08T05:35:29.552Z,3.10
2018-12-08T05:37:57.306Z,2.90
2018-12-08T05:40:24.763Z,4.37
2018-12-08T05:42:52.551Z,2.67
2018-12-08T05:45:20.164Z,3.47
2018-12-08T05:47:47.687Z,3.23
2018-12-08T05:50:15.207Z,4.07
2018-12-08T05:52:42.699Z,4.83
2018-12-08T05:55:10.241Z,3.03
2018-12-08T05:57:37.918Z,4.00
2018-12-08T06:00:06.572Z,4.20
2018-12-08T06:02:34.049Z,5.73
2018-12-08T06:05:01.491Z,3.10
2018-12-08T06:07:29.124Z,4.97
2018-12-08T06:09:56.716Z,6.50
2018-12-08T06:12:24.371Z,4.20
2018-12-08T06:14:51.860Z,4.00
2018-12-08T06:17:19.282Z,3.53
2018-12-08T06:19:46.868Z,4.47
2018-12-08T06:22:14.331Z,4.37
2018-12-08T06:24:42.060Z,4.40
2018-12-08T06:27:09.560Z,4.63
2018-12-08T06:29:37.276Z,4.07
2018-12-08T06:32:04.756Z,6.30
2018-12-08T06:34:32.518Z,3.40
2018-12-08T06:36:59.980Z,5.70
2018-12-08T06:39:27.591Z,5.70
2018-12-08T06:41:55.095Z,5.10
2018-12-08T06:44:22.551Z,4.23
2018-12-08T06:46:50.035Z,5.93
2018-12-08T06:49:17.507Z,6.43
2018-12-08T06:51:44.967Z,5.73
2018-12-08T06:54:12.394Z,7.00
2018-12-08T06:56:39.929Z,5.00
2018-12-08T06:59:07.376Z,5.17
2018-12-08T07:01:34.825Z,5.50
2018-12-08T07:04:02.612Z,5.57
2018-12-08T07:06:30.067Z,5.37
2018-12-08T07:08:57.512Z,5.97
2018-12-08T07:11:24.977Z,5.23
2018-12-08T07:13:52.423Z,5.23
2018-12-08T07:16:20.211Z,6.20
2018-12-08T07:18:47.636Z,4.93
2018-12-08T07:21:15.507Z,5.57
2018-12-08T07:23:43.159Z,5.37
2018-12-08T07:26:10.924Z,5.10
2018-12-08T07:28:38.393Z,4.00
2018-12-08T07:31:06.143Z,4.70
2018-12-08T07:33:33.595Z,5.00
2018-12-08T07:36:01.393Z,6.30
2018-12-08T07:38:29.387Z,5.97
2018-12-08T07:40:56.891Z,5.00
2018-12-08T07:43:24.372Z,4.17
2018-12-08T07:45:51.811Z,5.37
2018-12-08T07:48:19.285Z,4.80
2018-12-08T07:50:46.723Z,5.00
2018-12-08T07:53:14.816Z,4.63
2018-12-08T07:55:42.288Z,4.80
2018-12-08T07:58:10.270Z,4.87
2018-12-08T08:00:37.776Z,5.20
2018-12-08T08:03:05.237Z,5.23
2018-12-08T08:05:32.996Z,4.30
2018-12-08T08:08:00.443Z,4.60
2018-12-08T08:10:28.039Z,5.80
2018-12-08T08:12:55.568Z,5.47
2018-12-08T08:15:23.147Z,6.03
2018-12-08T08:17:50.723Z,4.23
2018-12-08T08:20:18.617Z,5.37
2018-12-08T08:22:46.095Z,4.50
2018-12-08T08:25:13.672Z,6.47
2018-12-08T08:27:41.899Z,7.83
2018-12-08T08:30:09.827Z,6.13
2018-12-08T08:32:37.660Z,6.73
2018-12-08T08:35:06.291Z,6.50
2018-12-08T08:37:33.927Z,6.63
2018-12-08T08:40:01.458Z,6.30
2018-12-08T08:42:29.759Z,6.00
2018-12-08T08:44:57.215Z,6.50
2018-12-08T08:47:24.977Z,5.80
2018-12-08T08:49:52.761Z,5.77
2018-12-08T08:52:20.500Z,5.30
2018-12-08T08:54:48.581Z,4.97
2018-12-08T08:57:16.246Z,3.97
2018-12-08T08:59:43.847Z,4.83
2018-12-08T09:02:12.556Z,4.23
2018-12-08T09:04:40.807Z,3.80
2018-12-08T09:07:10.266Z,3.13
2018-12-08T09:09:37.735Z,3.43
2018-12-08T09:12:05.404Z,4.80
2018-12-08T09:14:33.143Z,3.70
2018-12-08T09:17:01.243Z,2.90
2018-12-08T09:19:29.128Z,5.20
2018-12-08T09:21:57.604Z,3.23
2018-12-08T09:24:25.039Z,4.30
2018-12-08T09:26:53.013Z,3.67
2018-12-08T09:29:20.657Z,4.73
2018-12-08T09:31:48.232Z,4.90
2018-12-08T09:34:15.703Z,3.90
2018-12-08T09:36:43.798Z,4.30
2018-12-08T09:39:11.387Z,4.27
2018-12-08T09:41:39.049Z,4.40
2018-12-08T09:44:06.632Z,1.90
2018-12-08T09:46:34.224Z,3.70
2018-12-08T09:49:01.724Z,3.63
2018-12-08T09:51:29.485Z,3.13
2018-12-08T09:53:56.955Z,2.90
2018-12-08T09:56:24.404Z,3.50
2018-12-08T09:58:51.951Z,3.07
2018-12-08T10:01:19.420Z,3.40
2018-12-08T10:03:46.883Z,3.60
2018-12-08T10:06:14.644Z,3.97
2018-12-08T10:08:42.823Z,1.90
2018-12-08T10:11:10.267Z,2.83
2018-12-08T10:13:38.156Z,4.37
2018-12-08T10:16:06.486Z,5.77
2018-12-08T10:18:33.978Z,3.03
2018-12-08T10:21:01.531Z,2.90
2018-12-08T10:23:29.600Z,2.70
2018-12-08T10:25:57.260Z,4.20
2018-12-08T10:28:24.823Z,3.37
2018-12-08T10:30:52.900Z,2.47
2018-12-08T10:33:20.665Z,3.23
2018-12-08T10:35:48.103Z,3.53
2018-12-08T10:38:15.572Z,3.90
2018-12-08T10:40:43.568Z,3.27
2018-12-08T10:43:11.022Z,3.60
2018-12-08T10:45:38.559Z,3.93
2018-12-08T10:48:06.316Z,3.47
2018-12-08T10:50:33.952Z,3.30
2018-12-08T10:53:02.237Z,4.00
2018-12-08T10:55:29.709Z,6.77
2018-12-08T10:57:57.371Z,3.67
2018-12-08T11:00:31.340Z,2.80
2018-12-08T11:03:00.688Z,4.10
2018-12-08T11:05:28.176Z,2.80
2018-12-08T11:07:55.702Z,3.37
2018-12-08T11:10:23.159Z,3.63
2018-12-08T11:12:50.631Z,3.70
2018-12-08T11:15:18.579Z,3.20
2018-12-08T11:17:46.127Z,3.80
2018-12-08T11:20:13.619Z,3.33
2018-12-08T11:22:41.146Z,3.27
2018-12-08T11:25:08.628Z,2.80
2018-12-08T11:27:36.092Z,3.87
2018-12-08T11:30:04.923Z,3.60
2018-12-08T11:32:33.098Z,4.20
2018-12-08T11:35:01.099Z,3.90
2018-12-08T11:37:28.576Z,3.10
2018-12-08T11:39:56.109Z,4.37
2018-12-08T11:42:23.748Z,2.90
2018-12-08T11:44:51.211Z,1.60
2018-12-08T11:47:19.750Z,3.20
2018-12-08T11:49:48.581Z,2.77
2018-12-08T11:52:16.068Z,3.13
2018-12-08T11:54:43.627Z,2.73
2018-12-08T11:57:11.463Z,2.57
2018-12-08T11:59:39.144Z,1.73
2018-12-08T12:02:06.899Z,2.83
2018-12-08T12:04:34.367Z,2.27
2018-12-08T12:07:01.807Z,1.67
2018-12-08T12:09:29.296Z,2.13
2018-12-08T12:11:56.745Z,2.57
2018-12-08T12:14:41.172Z,1.90
2018-12-08T12:17:08.667Z,2.50
2018-12-08T12:19:36.299Z,2.37
2018-12-08T12:22:04.168Z,3.40
2018-12-08T12:24:31.717Z,3.03
2018-12-08T12:26:59.284Z,2.90
2018-12-08T12:29:27.259Z,2.20
2018-12-08T12:31:54.709Z,3.30
2018-12-08T12:34:22.438Z,3.57
2018-12-08T12:36:49.983Z,2.43
2018-12-08T12:39:17.408Z,2.70
2018-12-08T12:41:44.920Z,2.40
2018-12-08T12:44:12.388Z,1.70
2018-12-08T12:46:39.884Z,2.80
2018-12-08T12:49:07.352Z,2.90
2018-12-08T12:51:34.816Z,2.53
2018-12-08T12:54:02.676Z,1.87
2018-12-08T12:56:30.135Z,3.07
2018-12-08T12:58:57.840Z,3.20
2018-12-08T13:01:25.315Z,3.20
2018-12-08T13:03:54.727Z,2.60
2018-12-08T13:06:24.091Z,3.37
2018-12-08T13:08:53.370Z,2.20
2018-12-08T13:11:21.562Z,2.10
2018-12-08T13:13:49.676Z,3.27
2018-12-08T13:16:17.171Z,2.77
2018-12-08T13:18:44.688Z,3.57
2018-12-08T13:21:12.163Z,2.63
2018-12-08T13:23:39.727Z,2.67
2018-12-08T13:26:07.477Z,3.67
2018-12-08T13:28:35.222Z,3.20
2018-12-08T13:31:02.683Z,2.20
2018-12-08T13:33:30.224Z,2.37
2018-12-08T13:35:57.900Z,2.30
2018-12-08T13:38:25.361Z,2.03
2018-12-08T13:40:52.830Z,1.97
2018-12-08T13:43:20.571Z,2.10
2018-12-08T13:45:48.131Z,1.70
2018-12-08T13:48:16.188Z,1.77
2018-12-08T13:50:45.179Z,1.90
2018-12-08T13:53:13.323Z,2.17
2018-12-08T13:55:40.935Z,1.93
2018-12-08T13:58:08.572Z,1.80
2018-12-08T14:00:36.056Z,2.50
2018-12-08T14:03:03.607Z,2.63
2018-12-08T14:05:31.071Z,1.90
2018-12-08T14:07:58.543Z,1.20
2018-12-08T14:10:26.228Z,2.70
2018-12-08T14:12:53.685Z,2.00
2018-12-08T14:15:21.499Z,1.73
2018-12-08T14:17:50.207Z,3.80
2018-12-08T14:20:23.509Z,2.17
2018-12-08T14:22:50.964Z,3.40
2018-12-08T14:25:20.015Z,2.80
2018-12-08T14:27:47.697Z,1.90
2018-12-08T14:30:15.198Z,2.50
2018-12-08T14:32:42.708Z,2.83
2018-12-08T14:35:10.152Z,2.70
2018-12-08T14:37:37.619Z,2.40
2018-12-08T14:40:06.590Z,2.87
2018-12-08T14:42:34.064Z,2.30
2018-12-08T14:45:01.732Z,2.60
2018-12-08T14:47:29.811Z,2.47
2018-12-08T14:49:57.267Z,1.60
2018-12-08T14:52:24.956Z,2.33
2018-12-08T14:54:52.651Z,2.87
2018-12-08T14:57:20.078Z,2.07
2018-12-08T14:59:47.578Z,1.90
2018-12-08T15:02:15.179Z,2.50
2018-12-08T15:04:42.650Z,2.43
2018-12-08T15:07:10.125Z,2.30
2018-12-08T15:09:37.830Z,1.80
2018-12-08T15:12:05.644Z,2.20
2018-12-08T15:14:33.392Z,2.10
2018-12-08T15:17:00.850Z,2.80
2018-12-08T15:19:29.215Z,2.00
2018-12-08T15:21:56.678Z,1.30
2018-12-08T15:24:24.175Z,3.27
2018-12-08T15:26:51.734Z,3.50
2018-12-08T15:29:19.315Z,2.30
2018-12-08T15:31:46.803Z,2.60
2018-12-08T15:34:15.208Z,2.27
2018-12-08T15:36:42.924Z,2.30
2018-12-08T15:39:10.420Z,2.13
2018-12-08T15:41:37.880Z,2.33
2018-12-08T15:44:05.943Z,3.40
2018-12-08T15:46:33.679Z,3.83
2018-12-08T15:49:01.131Z,3.47
2018-12-08T15:51:28.595Z,1.80
2018-12-08T15:53:57.984Z,1.67
2018-12-08T16:02:24.083Z,2.53
2018-12-08T16:04:51.592Z,2.97
2018-12-08T16:07:19.126Z,2.30
2018-12-08T16:09:46.649Z,3.10
2018-12-08T16:12:14.287Z,3.27
2018-12-08T16:14:42.715Z,4.10
2018-12-08T16:17:10.300Z,2.43
2018-12-08T16:19:37.887Z,3.13
2018-12-08T16:22:05.340Z,1.70
2018-12-08T16:24:32.793Z,2.40
2018-12-08T16:27:00.671Z,3.00
2018-12-08T16:29:28.337Z,2.10
2018-12-08T16:31:55.807Z,2.90
2018-12-08T16:34:23.447Z,2.33
2018-12-08T16:36:50.984Z,1.60
2018-12-08T16:39:18.436Z,2.47
2018-12-08T16:41:45.915Z,1.80
2018-12-08T16:44:13.360Z,2.50
2018-12-08T16:46:40.819Z,1.50
2018-12-08T16:49:08.275Z,1.40
2018-12-08T16:51:35.744Z,2.10
2018-12-08T16:54:06.360Z,1.57
2018-12-08T16:56:33.829Z,2.47
2018-12-08T16:59:01.288Z,2.37
2018-12-08T17:01:28.761Z,2.00
2018-12-08T17:03:56.849Z,2.53
2018-12-08T17:06:24.308Z,2.10
2018-12-08T17:08:51.740Z,2.43
2018-12-08T17:11:19.395Z,3.27
2018-12-08T17:13:46.836Z,2.33
2018-12-08T17:16:14.302Z,2.90
2018-12-08T17:18:41.785Z,2.37
2018-12-08T17:21:09.241Z,3.43
2018-12-08T17:23:36.699Z,3.27
2018-12-08T17:26:04.435Z,2.80
2018-12-08T17:28:32.107Z,3.60
2018-12-08T17:30:59.667Z,2.50
2018-12-08T17:33:27.427Z,2.87
2018-12-08T17:35:54.888Z,2.67
2018-12-08T17:38:23.433Z,4.10
2018-12-08T17:40:50.875Z,2.57
2018-12-08T17:43:18.484Z,2.40
2018-12-08T17:45:46.124Z,3.77
2018-12-08T17:48:13.563Z,3.10
2018-12-08T17:50:41.152Z,2.70
2018-12-08T17:53:08.911Z,4.30
2018-12-08T17:55:36.384Z,3.20
2018-12-08T17:58:04.135Z,2.03
2018-12-08T18:00:31.636Z,2.30
2018-12-08T18:02:59.183Z,3.60
2018-12-08T18:05:26.624Z,2.77
2018-12-08T18:07:54.271Z,1.60
2018-12-08T18:10:21.740Z,5.00
2018-12-08T18:12:49.490Z,2.67
2018-12-08T18:15:16.966Z,2.30
2018-12-08T18:17:44.416Z,3.00
2018-12-08T18:20:12.172Z,3.10
2018-12-08T18:22:39.774Z,4.00
2018-12-08T18:25:07.559Z,2.73
2018-12-08T18:27:35.022Z,2.77
2018-12-08T18:30:02.508Z,3.27
2018-12-08T18:32:29.968Z,2.60
2018-12-08T18:34:57.436Z,2.30
2018-12-08T18:37:24.985Z,3.07
2018-12-08T18:39:52.438Z,3.77
2018-12-08T18:42:20.203Z,3.00
2018-12-08T18:44:47.966Z,2.70
2018-12-08T18:47:15.729Z,3.63
2018-12-08T18:49:43.179Z,3.83
2018-12-08T18:52:10.841Z,2.83
2018-12-08T18:54:38.315Z,4.27
2018-12-08T18:57:05.855Z,3.10
2018-12-08T18:59:33.623Z,3.57
2018-12-08T19:02:01.260Z,3.03
2018-12-08T19:04:28.775Z,2.97
2018-12-08T19:06:56.275Z,3.27
2018-12-08T19:09:23.761Z,5.30
2018-12-08T19:11:52.132Z,3.90
2018-12-08T19:14:19.571Z,4.47
2018-12-08T19:16:47.048Z,2.87
2018-12-08T19:19:14.790Z,3.53
2018-12-08T19:21:42.272Z,3.40
2018-12-08T19:24:09.796Z,4.40
2018-12-08T19:26:37.492Z,2.90
2018-12-08T19:29:05.247Z,3.40
2018-12-08T19:31:33.731Z,5.17
2018-12-08T19:34:01.196Z,4.83
2018-12-08T19:36:28.848Z,3.30
2018-12-08T19:38:56.483Z,4.00
2018-12-08T19:41:23.944Z,4.47
2018-12-08T19:43:51.519Z,3.47
2018-12-08T19:46:19.292Z,4.13
2018-12-08T19:48:47.050Z,4.50
2018-12-08T19:51:14.518Z,3.73
2018-12-08T19:53:41.954Z,2.70
2018-12-08T19:56:09.424Z,3.83
2018-12-08T19:58:36.886Z,4.13
2018-12-08T20:01:04.565Z,4.27
2018-12-08T20:03:32.109Z,2.93
2018-12-08T20:06:00.256Z,2.50
2018-12-08T20:08:27.704Z,3.70
2018-12-08T20:10:55.174Z,3.00
2018-12-08T20:13:23.155Z,3.73
2018-12-08T20:15:51.279Z,3.53
2018-12-08T20:18:19.566Z,3.03
2018-12-08T20:20:47.017Z,3.90
2018-12-08T20:23:14.511Z,4.37
2018-12-08T20:25:41.975Z,3.00
2018-12-08T20:28:09.424Z,3.27
2018-12-08T20:30:36.896Z,3.90
2018-12-08T20:33:04.451Z,3.50
2018-12-08T20:35:32.087Z,3.87
2018-12-08T20:37:59.572Z,4.17
2018-12-08T20:40:27.525Z,3.57
2018-12-08T20:42:55.567Z,4.43
2018-12-08T20:45:23.054Z,4.00
2018-12-08T20:47:50.630Z,3.93
2018-12-08T20:50:18.093Z,3.50
2018-12-08T20:52:45.841Z,4.20
2018-12-08T20:55:13.607Z,3.50
2018-12-08T20:57:41.056Z,4.53
2018-12-08T21:00:08.534Z,3.60
2018-12-08T21:02:36.279Z,4.90
2018-12-08T21:05:04.049Z,4.47
2018-12-08T21:07:31.696Z,3.77
2018-12-08T21:09:59.121Z,4.90
2018-12-08T21:12:26.592Z,4.87
2018-12-08T21:14:54.080Z,5.00
2018-12-08T21:17:21.521Z,3.83
2018-12-08T21:19:49.079Z,4.77
2018-12-08T21:22:16.723Z,4.50
2018-12-08T21:24:44.304Z,4.70
2018-12-08T21:27:11.757Z,4.07
2018-12-08T21:29:39.215Z,3.77
2018-12-08T21:32:06.677Z,4.10
2018-12-08T21:34:34.345Z,5.10
2018-12-08T21:37:01.936Z,3.93
2018-12-08T21:39:30.441Z,5.00
2018-12-08T21:41:58.031Z,4.63
2018-12-08T21:44:25.571Z,4.13
2018-12-08T21:46:53.564Z,5.23
2018-12-08T21:49:21.034Z,3.80
2018-12-08T21:51:48.501Z,4.90
2018-12-08T21:54:15.939Z,5.63
2018-12-08T21:56:43.559Z,5.80
2018-12-08T21:59:11.758Z,3.30
2018-12-08T22:01:39.199Z,3.63
2018-12-08T22:04:06.651Z,4.90
2018-12-08T22:06:34.135Z,4.23
2018-12-08T22:09:02.230Z,3.57
2018-12-08T22:11:29.672Z,5.70
2018-12-08T22:13:57.425Z,5.37
2018-12-08T22:16:24.849Z,3.40
2018-12-08T22:18:52.287Z,4.33
2018-12-08T22:21:19.755Z,5.20
2018-12-08T22:23:47.235Z,6.50
2018-12-08T22:26:14.703Z,5.57
2018-12-08T22:28:42.163Z,5.80
2018-12-08T22:31:09.624Z,6.90
2018-12-08T22:33:37.379Z,6.00
2018-12-08T22:36:04.852Z,5.97
2018-12-08T22:38:32.611Z,7.80
2018-12-08T22:41:00.060Z,5.30
2018-12-08T22:43:27.503Z,5.97
2018-12-08T22:45:55.088Z,5.40
2018-12-08T22:48:23.128Z,5.80
2018-12-08T22:50:50.929Z,8.00
2018-12-08T22:53:18.354Z,5.83
2018-12-08T22:55:49.607Z,7.00
2018-12-08T22:58:17.167Z,7.20
2018-12-08T23:00:45.797Z,7.67
2018-12-08T23:03:14.909Z,8.30
2018-12-08T23:05:43.162Z,8.13
2018-12-08T23:08:10.684Z,8.53
2018-12-08T23:10:38.339Z,8.17
2018-12-08T23:13:05.899Z,8.40
2018-12-08T23:15:33.345Z,8.40
2018-12-08T23:18:01.020Z,10.23
2018-12-08T23:20:28.500Z,10.27
2018-12-08T23:22:55.976Z,9.57
2018-12-08T23:25:23.975Z,7.13
2018-12-08T23:27:51.565Z,9.27
2018-12-08T23:30:19.025Z,8.00
2018-12-08T23:32:46.499Z,5.97
2018-12-08T23:35:13.950Z,5.90
2018-12-08T23:37:41.419Z,5.87
2018-12-08T23:40:09.153Z,5.97
2018-12-08T23:42:36.599Z,6.07
2018-12-08T23:45:05.255Z,5.53
2018-12-08T23:47:32.752Z,6.97
2018-12-08T23:50:00.220Z,4.90
2018-12-08T23:52:27.974Z,5.70
2018-12-08T23:54:55.433Z,6.60
2018-12-08T23:57:22.903Z,6.00
2018-12-08T23:59:50.363Z,4.70
